Time;durP1;ratioP1;P1;durP2;ratioP2;P2;SDS_P1;SDS_P2;PMS_P1;PMS_P2;Temp;Humidity;BMP_temperature;BMP_pressure;BME280_temperature;BME280_humidity;BME280_pressure;Samples;Min_cycle;Max_cycle;Signal;HPM_P1;HPM_P2
2024/01/06 03:47:05;;;;;;;;;;;;;;;;;;;;;
2024/01/06 05:37:45;;;;;;;11.60;11.20;;;3.50;99.90;;;;;;6088985;23;20206;-80
2024/01/06 05:40:14;;;;;;;11.70;11.30;;;3.50;99.90;;;;;;6090941;23;20213;-81
2024/01/06 05:42:41;;;;;;;11.30;10.90;;;3.50;99.90;;;;;;6092411;23;20242;-80
2024/01/06 05:45:13;;;;;;;11.47;11.07;;;3.50;99.90;;;;;;6091456;23;20198;-81
2024/01/06 05:47:40;;;;;;;11.63;11.23;;;3.50;99.90;;;;;;6091301;23;20210;-81
2024/01/06 05:50:10;;;;;;;11.50;11.10;;;3.50;99.90;;;;;;6090490;23;20198;-80
2024/01/06 05:52:37;;;;;;;11.60;11.20;;;3.50;99.90;;;;;;6085373;23;20210;-81
2024/01/06 05:55:07;;;;;;;11.30;10.90;;;3.50;99.90;;;;;;6081096;23;20206;-80
2024/01/06 05:57:34;;;;;;;11.13;10.73;;;3.50;99.90;;;;;;6081271;23;20233;-80
2024/01/06 06:00:01;;;;;;;11.47;11.07;;;3.50;99.90;;;;;;6079796;23;20337;-81
2024/01/06 06:02:29;;;;;;;11.40;11.00;;;3.50;99.90;;;;;;6079767;23;20233;-80
2024/01/06 06:04:56;;;;;;;11.30;10.90;;;3.50;99.90;;;;;;6079870;23;20697;-81
2024/01/06 06:07:24;;;;;;;11.30;10.90;;;3.40;99.90;;;;;;6078706;23;20212;-82
2024/01/06 06:09:52;;;;;;;11.50;11.10;;;3.40;99.90;;;;;;6078050;23;20206;-81
2024/01/06 06:12:21;;;;;;;11.23;10.83;;;3.50;99.90;;;;;;6079339;23;20193;-81
2024/01/06 06:14:50;;;;;;;11.40;11.00;;;3.50;99.90;;;;;;6083705;23;20204;-81
2024/01/06 06:17:18;;;;;;;11.57;11.17;;;3.50;99.90;;;;;;6081392;23;20210;-81
2024/01/06 06:19:45;;;;;;;11.27;10.87;;;3.50;99.90;;;;;;6081546;23;20217;-81
2024/01/06 06:22:12;;;;;;;11.23;10.83;;;3.50;99.90;;;;;;6081263;23;20207;-81
2024/01/06 06:24:40;;;;;;;11.13;10.73;;;3.50;99.90;;;;;;6080865;23;20207;-81
2024/01/06 06:27:07;;;;;;;11.13;10.73;;;3.50;99.90;;;;;;6080884;23;20292;-82
2024/01/06 06:29:36;;;;;;;11.53;11.13;;;3.50;99.90;;;;;;6080343;23;20195;-81
2024/01/06 06:32:07;;;;;;;11.10;10.70;;;3.50;99.90;;;;;;6080425;23;20202;-81
2024/01/06 06:34:35;;;;;;;11.47;11.07;;;3.50;99.90;;;;;;6080127;23;20194;-81
2024/01/06 06:37:03;;;;;;;11.30;10.90;;;3.50;99.90;;;;;;6080006;23;20216;-82
2024/01/06 06:39:31;;;;;;;11.03;10.63;;;3.50;99.90;;;;;;6080108;23;20202;-82
2024/01/06 06:41:59;;;;;;;11.40;11.00;;;3.50;99.90;;;;;;6084487;23;20183;-80
2024/01/06 06:44:26;;;;;;;11.20;10.80;;;3.50;99.90;;;;;;6085967;23;20654;-81
2024/01/06 06:46:57;;;;;;;11.30;10.90;;;3.50;99.90;;;;;;6080779;23;20210;-81
2024/01/06 06:49:24;;;;;;;11.40;11.00;;;3.40;99.90;;;;;;6081944;23;20201;-81
2024/01/06 06:51:52;;;;;;;11.40;11.00;;;3.40;99.90;;;;;;6081055;23;20198;-80
2024/01/06 06:54:20;;;;;;;11.27;10.87;;;3.40;99.90;;;;;;6082803;23;20217;-81
2024/01/06 06:56:47;;;;;;;11.33;10.93;;;3.40;99.90;;;;;;6083407;23;20241;-81
2024/01/06 06:59:14;;;;;;;11.07;10.67;;;3.30;99.90;;;;;;6082145;23;20198;-81
2024/01/06 07:01:42;;;;;;;11.30;10.90;;;3.30;99.90;;;;;;6083438;23;20229;-81
2024/01/06 07:04:11;;;;;;;11.17;10.77;;;3.30;99.90;;;;;;6082250;23;20198;-82
2024/01/06 07:06:39;;;;;;;11.30;10.90;;;3.30;99.90;;;;;;6080222;23;20310;-81
2024/01/06 07:09:06;;;;;;;11.50;11.10;;;3.30;99.90;;;;;;6081842;23;20198;-81
2024/01/06 07:11:34;;;;;;;10.87;10.57;;;3.40;99.90;;;;;;6082071;23;20201;-81
2024/01/06 07:14:01;;;;;;;11.53;11.13;;;3.40;99.90;;;;;;6080379;23;20212;-82
2024/01/06 07:16:28;;;;;;;11.30;10.90;;;3.40;99.90;;;;;;6079784;23;20237;-81
2024/01/06 07:18:56;;;;;;;11.27;10.87;;;3.40;99.90;;;;;;6079170;23;20198;-81
2024/01/06 07:21:24;;;;;;;11.17;10.77;;;3.40;99.90;;;;;;6081158;23;20214;-81
2024/01/06 07:23:52;;;;;;;11.03;10.63;;;3.40;99.90;;;;;;6084118;23;20194;-81
2024/01/06 07:26:19;;;;;;;10.63;10.33;;;3.50;99.90;;;;;;6080058;23;20208;-82
2024/01/06 07:28:47;;;;;;;10.90;10.60;;;3.50;99.90;;;;;;6079288;23;20195;-82
2024/01/06 07:31:14;;;;;;;10.70;10.40;;;3.50;99.90;;;;;;6081422;23;20294;-81
2024/01/06 07:33:41;;;;;;;10.67;10.37;;;3.50;99.90;;;;;;6081623;23;20250;-81
2024/01/06 07:36:09;;;;;;;10.80;10.50;;;3.50;99.90;;;;;;6081084;23;20206;-82
2024/01/06 07:38:38;;;;;;;10.73;10.43;;;3.50;99.90;;;;;;6079600;23;20263;-81
2024/01/06 07:41:05;;;;;;;10.77;10.47;;;3.40;99.90;;;;;;6080253;23;20207;-81
2024/01/06 07:43:32;;;;;;;10.70;10.40;;;3.50;99.90;;;;;;6080592;23;20206;-81
2024/01/06 07:46:00;;;;;;;11.17;10.77;;;3.50;99.90;;;;;;6080255;23;20207;-81
2024/01/06 07:48:30;;;;;;;10.80;10.50;;;3.50;99.90;;;;;;6079581;23;20233;-81
2024/01/06 07:50:57;;;;;;;10.97;10.67;;;3.50;99.90;;;;;;6079271;23;20195;-81
2024/01/06 07:53:24;;;;;;;10.67;10.37;;;3.50;99.90;;;;;;6078973;23;20199;-81
2024/01/06 07:55:53;;;;;;;10.80;10.50;;;3.50;99.90;;;;;;6080788;23;20260;-81
2024/01/06 07:58:21;;;;;;;10.47;10.17;;;3.50;99.90;;;;;;6088952;23;20263;-80
2024/01/06 08:04:38;;;;;;;10.87;10.57;;;3.60;99.90;;;;;;6079601;23;20229;-82
2024/01/06 08:07:58;;;;;;;10.47;10.17;;;3.60;99.90;;;;;;6081115;23;21024;-81
2024/01/06 08:13:30;;;;;;;10.80;10.50;;;3.60;99.90;;;;;;6102703;23;20292;-81
2024/01/06 08:16:24;;;;;;;;;;;;;;;;;;;;;
2024/01/06 08:19:02;;;;;;;10.67;10.37;;;3.70;99.90;;;;;;6082167;23;20212;-81
2024/01/06 08:21:38;;;;;;;10.80;10.50;;;3.70;99.90;;;;;;6088542;23;20223;-81
2024/01/06 08:27:54;;;;;;;10.70;10.40;;;3.70;99.90;;;;;;6102910;23;20220;-81
2024/01/06 08:30:37;;;;;;;10.90;10.60;;;3.80;99.90;;;;;;6102572;23;20186;-81
2024/01/06 08:33:17;;;;;;;10.50;10.20;;;3.80;99.90;;;;;;6088542;23;20209;-81
2024/01/06 08:36:20;;;;;;;10.30;10.00;;;3.80;99.90;;;;;;6087410;23;20212;-80
2024/01/06 08:38:48;;;;;;;10.40;10.10;;;3.90;99.90;;;;;;6212738;23;20230;-81
2024/01/06 08:41:15;;;;;;;10.40;10.10;;;3.90;99.90;;;;;;6213018;23;20210;-81
2024/01/06 08:43:42;;;;;;;10.50;10.20;;;4.00;99.90;;;;;;6215620;23;20202;-80
2024/01/06 08:46:14;;;;;;;10.77;10.47;;;4.10;99.90;;;;;;6215131;23;20190;-80
2024/01/06 08:48:41;;;;;;;10.73;10.43;;;4.00;99.90;;;;;;6213948;23;20192;-81
2024/01/06 08:51:08;;;;;;;10.60;10.30;;;4.20;99.90;;;;;;6213622;23;20195;-81
2024/01/06 08:53:36;;;;;;;10.33;10.03;;;4.20;99.90;;;;;;6212749;23;20208;-82
2024/01/06 08:56:03;;;;;;;10.40;10.10;;;4.30;99.90;;;;;;6212823;23;20195;-81
2024/01/06 08:58:30;;;;;;;10.30;10.00;;;4.30;99.90;;;;;;6212761;23;20297;-82
2024/01/06 09:00:59;;;;;;;10.30;10.00;;;4.30;99.90;;;;;;6212936;23;20207;-81
2024/01/06 09:03:28;;;;;;;10.20;9.90;;;4.40;99.90;;;;;;6214195;23;20279;-82
2024/01/06 09:05:57;;;;;;;10.30;10.00;;;4.40;99.90;;;;;;6214046;23;20262;-81
2024/01/06 09:08:25;;;;;;;10.40;10.10;;;4.40;99.90;;;;;;6214650;23;20266;-81
2024/01/06 09:10:55;;;;;;;10.20;9.90;;;4.50;99.90;;;;;;6212597;23;20199;-82
2024/01/06 09:13:23;;;;;;;10.00;9.70;;;4.50;99.90;;;;;;6212232;23;20234;-82
2024/01/06 09:15:51;;;;;;;10.37;10.07;;;4.50;99.90;;;;;;6213945;23;20204;-82
2024/01/06 09:18:18;;;;;;;10.23;9.93;;;4.60;99.90;;;;;;6214366;23;20207;-81
2024/01/06 09:20:48;;;;;;;9.67;9.37;;;4.70;99.90;;;;;;6214297;23;20200;-81
2024/01/06 09:23:16;;;;;;;10.07;9.77;;;4.70;99.90;;;;;;6212914;23;20203;-79
2024/01/06 09:25:44;;;;;;;10.03;9.73;;;4.70;99.90;;;;;;6213437;23;20183;-80
2024/01/06 09:28:11;;;;;;;10.13;9.83;;;4.70;99.90;;;;;;6211837;23;20196;-80
2024/01/06 09:30:39;;;;;;;10.20;9.90;;;4.80;99.90;;;;;;6211995;23;20198;-80
2024/01/06 09:33:07;;;;;;;10.40;10.10;;;4.80;99.90;;;;;;6210432;23;20223;-80
2024/01/06 09:35:35;;;;;;;10.33;10.03;;;4.90;99.90;;;;;;6213449;23;20219;-82
2024/01/06 09:38:04;;;;;;;10.50;10.20;;;4.90;99.90;;;;;;6215615;23;20207;-81
2024/01/06 09:40:33;;;;;;;10.47;10.17;;;5.00;99.90;;;;;;6216955;23;20191;-81
2024/01/06 09:43:01;;;;;;;10.13;9.83;;;5.00;99.90;;;;;;6216128;23;20236;-81
2024/01/06 09:45:30;;;;;;;10.00;9.70;;;5.10;99.90;;;;;;6215549;23;20203;-81
2024/01/06 09:47:59;;;;;;;10.00;9.70;;;5.20;99.90;;;;;;6215434;23;20194;-80
2024/01/06 09:50:27;;;;;;;9.90;9.60;;;5.20;99.90;;;;;;6216676;23;20271;-81
2024/01/06 09:53:04;;;;;;;9.80;9.50;;;5.20;99.90;;;;;;6214966;23;20227;-82
2024/01/06 09:55:33;;;;;;;10.10;9.80;;;5.30;99.90;;;;;;6213298;23;20206;-80
2024/01/06 09:58:00;;;;;;;10.10;9.80;;;5.30;99.90;;;;;;6214568;23;20195;-81
2024/01/06 10:00:28;;;;;;;10.40;10.10;;;5.30;99.90;;;;;;6213987;23;20203;-81
2024/01/06 10:02:57;;;;;;;10.03;9.73;;;5.40;99.90;;;;;;6213353;23;20545;-81
2024/01/06 10:05:49;;;;;;;9.97;9.67;;;5.40;99.90;;;;;;6214310;23;20252;-81
2024/01/06 10:08:19;;;;;;;9.40;9.10;;;5.50;99.90;;;;;;6213408;23;20191;-81
2024/01/06 10:10:48;;;;;;;9.70;9.40;;;5.60;99.90;;;;;;6213936;23;20244;-81
2024/01/06 10:13:18;;;;;;;9.80;9.50;;;5.60;99.90;;;;;;6216086;23;20196;-81
2024/01/06 10:15:46;;;;;;;9.70;9.40;;;5.60;99.90;;;;;;6215576;23;20187;-81
2024/01/06 10:18:14;;;;;;;9.53;9.23;;;5.60;99.90;;;;;;6215472;23;20183;-80
2024/01/06 10:20:42;;;;;;;9.43;9.13;;;5.70;99.90;;;;;;6214506;23;20246;-80
2024/01/06 10:23:09;;;;;;;9.20;8.90;;;5.80;99.90;;;;;;6213538;23;20294;-81
2024/01/06 10:25:37;;;;;;;9.10;8.80;;;5.80;99.90;;;;;;6212378;23;20196;-81
2024/01/06 10:28:07;;;;;;;9.43;9.13;;;5.90;99.90;;;;;;6215891;22;20184;-81
2024/01/06 10:30:34;;;;;;;9.50;9.20;;;5.90;99.90;;;;;;6216997;22;20176;-80
2024/01/06 10:33:02;;;;;;;9.27;8.97;;;5.90;99.90;;;;;;6217735;23;20200;-80
2024/01/06 10:35:29;;;;;;;9.20;8.90;;;5.90;99.90;;;;;;6215969;23;20219;-82
2024/01/06 10:37:58;;;;;;;9.27;8.97;;;6.00;99.90;;;;;;6214808;23;20235;-82
2024/01/06 10:40:25;;;;;;;9.50;9.20;;;6.00;99.90;;;;;;6212467;23;20267;-82
2024/01/06 10:42:53;;;;;;;9.30;9.00;;;6.10;99.90;;;;;;6212150;23;20195;-82
2024/01/06 10:45:22;;;;;;;9.50;9.20;;;6.10;99.90;;;;;;6213385;23;20210;-80
2024/01/06 10:47:50;;;;;;;9.30;9.00;;;6.10;99.90;;;;;;6216241;22;20188;-80
2024/01/06 10:50:19;;;;;;;9.30;9.00;;;6.20;99.90;;;;;;6215806;22;20207;-80
2024/01/06 10:52:47;;;;;;;9.03;8.73;;;6.30;99.90;;;;;;6218497;22;20188;-79
2024/01/06 10:55:17;;;;;;;9.37;9.07;;;6.30;99.90;;;;;;6218360;22;20176;-80
2024/01/06 10:57:45;;;;;;;9.23;8.93;;;6.30;99.90;;;;;;6215590;23;20211;-81
2024/01/06 11:00:14;;;;;;;9.10;8.80;;;6.30;99.90;;;;;;6216426;23;20223;-81
2024/01/06 11:02:45;;;;;;;8.90;8.70;;;6.30;99.90;;;;;;6215587;23;20192;-82
2024/01/06 11:05:14;;;;;;;9.17;8.87;;;6.30;99.90;;;;;;6215888;23;20278;-81
2024/01/06 11:07:43;;;;;;;8.80;8.60;;;6.30;99.90;;;;;;6212503;23;20230;-81
2024/01/06 11:10:16;;;;;;;8.90;8.70;;;6.40;99.90;;;;;;6214084;23;20199;-81
2024/01/06 11:12:44;;;;;;;8.90;8.70;;;6.40;99.90;;;;;;6215736;23;20191;-81
2024/01/06 11:15:14;;;;;;;9.00;8.80;;;6.40;99.90;;;;;;6214339;23;20203;-82
2024/01/06 11:18:00;;;;;;;9.13;8.83;;;6.40;99.90;;;;;;6212896;23;20223;-81
2024/01/06 11:20:28;;;;;;;9.23;8.93;;;6.40;99.90;;;;;;6213627;23;20214;-81
2024/01/06 11:22:56;;;;;;;8.90;8.70;;;6.40;99.90;;;;;;6211638;23;20196;-81
2024/01/06 11:25:27;;;;;;;9.30;9.00;;;6.40;99.90;;;;;;6205716;23;20183;-81
2024/01/06 11:27:57;;;;;;;8.73;8.53;;;6.50;99.90;;;;;;6211244;23;20196;-81
2024/01/06 11:30:26;;;;;;;8.53;8.33;;;6.40;99.90;;;;;;6206871;23;20204;-81
2024/01/06 11:32:54;;;;;;;8.73;8.53;;;6.40;99.90;;;;;;6215687;23;20191;-80
2024/01/06 11:35:24;;;;;;;8.87;8.67;;;6.50;99.90;;;;;;6218543;22;20172;-81
2024/01/06 11:37:58;;;;;;;9.53;9.23;;;6.50;99.90;;;;;;6218970;23;20195;-80
2024/01/06 11:40:34;;;;;;;9.13;8.83;;;6.50;99.90;;;;;;6219644;22;20199;-80
2024/01/06 11:43:05;;;;;;;9.20;8.90;;;6.50;99.90;;;;;;6219772;22;20176;-80
2024/01/06 11:45:33;;;;;;;8.60;8.40;;;6.50;99.90;;;;;;6219361;22;20168;-80
2024/01/06 11:48:03;;;;;;;8.70;8.50;;;6.50;99.90;;;;;;6219737;22;20194;-80
2024/01/06 11:50:35;;;;;;;8.90;8.70;;;6.50;99.90;;;;;;6219506;22;20973;-80
2024/01/06 11:53:07;;;;;;;8.70;8.50;;;6.40;99.90;;;;;;6219857;22;20192;-79
2024/01/06 11:55:36;;;;;;;8.37;8.17;;;6.30;99.90;;;;;;6219847;22;20203;-80
2024/01/06 11:58:05;;;;;;;9.10;8.80;;;6.40;99.90;;;;;;6220140;22;20200;-80
2024/01/06 12:00:36;;;;;;;8.50;8.30;;;6.30;99.90;;;;;;6219639;22;20192;-80
2024/01/06 12:03:04;;;;;;;8.67;8.47;;;6.30;99.90;;;;;;6219752;22;20192;-80
2024/01/06 12:05:33;;;;;;;8.63;8.43;;;6.30;99.90;;;;;;6219639;22;20247;-79
2024/01/06 12:08:02;;;;;;;8.67;8.47;;;6.40;99.90;;;;;;6219337;22;20194;-79
2024/01/06 12:10:30;;;;;;;9.17;8.87;;;6.40;99.90;;;;;;6219135;22;20176;-79
2024/01/06 12:13:01;;;;;;;8.90;8.70;;;6.50;99.90;;;;;;6219639;22;20247;-79
2024/01/06 12:15:31;;;;;;;9.10;8.80;;;6.40;99.90;;;;;;6219590;22;20176;-79
2024/01/06 12:17:59;;;;;;;8.90;8.70;;;6.40;99.90;;;;;;6219852;22;20196;-79
2024/01/06 12:20:28;;;;;;;8.70;8.50;;;6.40;99.90;;;;;;6219086;22;20187;-79
2024/01/06 12:22:59;;;;;;;8.60;8.40;;;6.40;99.90;;;;;;6219621;22;20196;-79
2024/01/06 12:25:28;;;;;;;9.43;9.13;;;6.40;99.90;;;;;;6218971;22;20179;-80
2024/01/06 12:27:56;;;;;;;8.70;8.50;;;6.50;99.90;;;;;;6219573;22;20203;-80
2024/01/06 12:30:25;;;;;;;9.20;8.90;;;6.50;99.90;;;;;;6219795;22;20191;-80
2024/01/06 12:32:53;;;;;;;8.90;8.70;;;6.40;99.90;;;;;;6219365;22;20206;-80
2024/01/06 12:35:22;;;;;;;8.83;8.63;;;6.40;99.90;;;;;;6219044;22;20184;-80
2024/01/06 12:37:50;;;;;;;8.60;8.40;;;6.40;99.90;;;;;;6206225;23;20206;-81
2024/01/06 12:40:23;;;;;;;8.83;8.63;;;6.40;99.90;;;;;;6208086;23;20194;-82
2024/01/06 12:42:50;;;;;;;8.93;8.73;;;6.50;99.90;;;;;;6204321;23;20184;-81
2024/01/06 12:45:17;;;;;;;9.10;8.80;;;6.50;99.90;;;;;;6205440;23;20210;-80
2024/01/06 12:47:45;;;;;;;8.70;8.50;;;6.50;99.90;;;;;;6202397;23;20196;-81
2024/01/06 12:50:14;;;;;;;9.07;8.80;;;6.40;99.90;;;;;;6201480;23;20202;-81
2024/01/06 12:52:46;;;;;;;9.20;8.90;;;6.30;99.90;;;;;;6202087;23;20203;-81
2024/01/06 12:55:15;;;;;;;8.80;8.60;;;6.30;99.90;;;;;;6201861;23;20270;-80
2024/01/06 12:57:44;;;;;;;8.63;8.43;;;6.30;99.90;;;;;;6200827;23;20229;-81
2024/01/06 13:00:13;;;;;;;9.10;8.80;;;6.20;99.90;;;;;;6200246;23;20215;-81
2024/01/06 13:02:40;;;;;;;9.17;8.87;;;6.10;99.90;;;;;;6201602;23;20203;-80
2024/01/06 13:05:09;;;;;;;8.97;8.73;;;6.00;99.90;;;;;;6201371;23;20278;-80
2024/01/06 13:07:37;;;;;;;9.13;8.93;;;6.10;99.90;;;;;;6201562;23;20203;-80
2024/01/06 13:10:05;;;;;;;8.70;8.50;;;6.10;99.90;;;;;;6201145;23;20214;-81
2024/01/06 13:12:32;;;;;;;9.17;8.87;;;6.00;99.90;;;;;;6202233;23;20207;-80
2024/01/06 13:15:02;;;;;;;9.33;9.03;;;6.00;99.90;;;;;;6202708;23;20254;-80
2024/01/06 13:17:29;;;;;;;9.50;9.20;;;6.00;99.90;;;;;;6202572;23;20238;-80
2024/01/06 13:19:57;;;;;;;9.40;9.10;;;6.00;99.90;;;;;;6201447;23;20211;-81
2024/01/06 13:22:25;;;;;;;9.40;9.10;;;6.00;99.90;;;;;;6202469;23;20270;-80
2024/01/06 13:24:53;;;;;;;9.00;8.80;;;6.10;99.90;;;;;;6201904;23;20230;-81
2024/01/06 13:27:20;;;;;;;9.10;8.80;;;6.20;99.90;;;;;;6202656;23;20259;-81
2024/01/06 13:29:47;;;;;;;8.90;8.70;;;6.30;99.90;;;;;;6203708;23;20216;-81
2024/01/06 13:32:18;;;;;;;9.13;8.83;;;6.30;99.90;;;;;;6204722;23;20203;-81
2024/01/06 13:34:46;;;;;;;8.80;8.60;;;6.20;99.90;;;;;;6201956;23;20282;-81
2024/01/06 13:37:14;;;;;;;8.80;8.60;;;6.20;99.90;;;;;;6202057;23;20224;-81
2024/01/06 13:39:41;;;;;;;8.87;8.67;;;6.10;99.90;;;;;;6201534;23;20211;-81
2024/01/06 13:42:08;;;;;;;9.00;8.77;;;6.10;99.90;;;;;;6201476;23;20196;-81
2024/01/06 13:44:36;;;;;;;8.60;8.40;;;6.10;99.90;;;;;;6202118;23;20214;-81
2024/01/06 13:47:03;;;;;;;8.70;8.50;;;6.00;99.90;;;;;;6204621;23;20196;-81
2024/01/06 13:49:32;;;;;;;8.80;8.60;;;6.10;99.90;;;;;;6202589;23;20204;-81
2024/01/06 13:52:00;;;;;;;8.70;8.50;;;6.10;99.90;;;;;;6205664;23;20195;-81
2024/01/06 13:54:27;;;;;;;9.10;8.80;;;6.10;99.90;;;;;;6202309;23;20267;-81
2024/01/06 13:56:55;;;;;;;9.20;8.90;;;6.10;99.90;;;;;;6201985;23;20217;-81
2024/01/06 13:59:22;;;;;;;8.97;8.77;;;6.10;99.90;;;;;;6201026;23;20259;-81
2024/01/06 14:01:50;;;;;;;9.13;8.83;;;6.00;99.90;;;;;;6201052;23;20203;-81
2024/01/06 14:04:18;;;;;;;8.60;8.40;;;5.90;99.90;;;;;;6200352;23;20191;-81
2024/01/06 14:06:47;;;;;;;9.10;8.80;;;5.70;99.90;;;;;;6201488;23;20266;-81
2024/01/06 14:09:15;;;;;;;8.90;8.70;;;5.70;99.90;;;;;;6201341;23;20230;-80
2024/01/06 14:11:45;;;;;;;8.80;8.60;;;5.60;99.90;;;;;;6201386;23;20199;-81
2024/01/06 14:14:12;;;;;;;9.23;8.93;;;5.60;99.90;;;;;;6201247;23;20192;-81
2024/01/06 14:16:39;;;;;;;9.40;9.10;;;5.60;99.90;;;;;;6201797;23;20204;-80
2024/01/06 14:19:07;;;;;;;9.10;8.80;;;5.70;99.90;;;;;;6201169;23;20218;-80
2024/01/06 14:21:34;;;;;;;9.10;8.80;;;5.80;99.90;;;;;;6201275;23;20203;-81
2024/01/06 14:24:05;;;;;;;9.17;8.87;;;5.80;99.90;;;;;;6201327;23;20251;-80
2024/01/06 14:26:32;;;;;;;9.13;8.83;;;5.70;99.90;;;;;;6200992;23;20215;-80
2024/01/06 14:29:00;;;;;;;9.17;8.87;;;5.60;99.90;;;;;;6200750;23;20204;-80
2024/01/06 14:31:28;;;;;;;9.13;8.83;;;5.60;99.90;;;;;;6202033;23;20294;-80
2024/01/06 14:33:55;;;;;;;9.07;8.77;;;5.60;99.90;;;;;;6200963;23;20200;-80
2024/01/06 14:36:23;;;;;;;9.33;9.03;;;5.60;99.90;;;;;;6201211;23;20204;-80
2024/01/06 14:38:51;;;;;;;8.80;8.60;;;5.70;99.90;;;;;;6202719;23;20211;-81
2024/01/06 14:41:20;;;;;;;9.30;9.00;;;5.70;99.90;;;;;;6202148;23;20202;-81
2024/01/06 14:43:48;;;;;;;9.20;8.90;;;5.70;99.90;;;;;;6203096;23;20227;-80
2024/01/06 14:46:15;;;;;;;9.00;8.70;;;5.70;99.90;;;;;;6202818;23;20263;-80
2024/01/06 14:48:43;;;;;;;8.87;8.67;;;5.60;99.90;;;;;;6203297;23;20226;-81
2024/01/06 14:51:10;;;;;;;8.80;8.60;;;5.60;99.90;;;;;;6202455;23;20196;-81
2024/01/06 14:53:37;;;;;;;8.87;8.67;;;5.70;99.90;;;;;;6201941;23;20255;-80
2024/01/06 14:56:06;;;;;;;9.10;8.80;;;5.70;99.90;;;;;;6201857;23;20208;-80
2024/01/06 14:58:35;;;;;;;8.60;8.40;;;5.70;99.90;;;;;;6202441;23;20205;-80
2024/01/06 15:01:02;;;;;;;8.80;8.60;;;5.80;99.90;;;;;;6202134;23;20235;-81
2024/01/06 15:03:30;;;;;;;8.67;8.47;;;5.80;99.90;;;;;;6203959;23;20199;-80
2024/01/06 15:05:57;;;;;;;8.77;8.57;;;5.90;99.90;;;;;;6203650;23;20207;-82
2024/01/06 15:08:26;;;;;;;8.43;8.23;;;5.70;99.90;;;;;;6202906;23;20207;-81
2024/01/06 15:10:53;;;;;;;8.40;8.20;;;5.70;99.90;;;;;;6202360;23;20227;-81
2024/01/06 15:13:21;;;;;;;8.50;8.30;;;5.70;99.90;;;;;;6202354;23;20204;-81
2024/01/06 15:15:50;;;;;;;8.90;8.70;;;5.70;99.90;;;;;;6202978;23;20204;-81
2024/01/06 15:18:20;;;;;;;8.80;8.60;;;5.60;99.90;;;;;;6214967;23;20186;-80
2024/01/06 15:20:47;;;;;;;8.87;8.67;;;5.50;99.90;;;;;;6218779;22;20195;-79
2024/01/06 15:23:15;;;;;;;8.90;8.70;;;5.60;99.90;;;;;;6218108;23;20235;-80
2024/01/06 15:25:43;;;;;;;8.50;8.30;;;5.60;99.90;;;;;;6217085;23;20194;-81
2024/01/06 15:28:10;;;;;;;8.80;8.60;;;5.50;99.90;;;;;;6206481;23;20204;-79
2024/01/06 15:30:37;;;;;;;9.10;8.80;;;5.50;99.90;;;;;;6205796;23;20206;-82
2024/01/06 15:33:09;;;;;;;8.90;8.70;;;5.50;99.90;;;;;;6203904;23;20203;-83
2024/01/06 15:35:36;;;;;;;9.17;8.87;;;5.50;99.90;;;;;;6203936;23;20220;-81
2024/01/06 15:38:04;;;;;;;9.17;8.87;;;5.40;99.90;;;;;;6203541;23;20211;-81
2024/01/06 15:40:31;;;;;;;9.10;8.80;;;5.50;99.90;;;;;;6202906;23;20210;-81
2024/01/06 15:42:59;;;;;;;9.10;8.80;;;5.40;99.90;;;;;;6202577;23;20195;-81
2024/01/06 15:45:26;;;;;;;9.17;8.87;;;5.50;99.90;;;;;;6202664;23;20253;-82
2024/01/06 15:47:54;;;;;;;8.90;8.70;;;5.50;99.90;;;;;;6204104;23;20250;-81
2024/01/06 15:50:22;;;;;;;9.17;8.87;;;5.50;99.90;;;;;;6205612;23;20196;-81
2024/01/06 15:52:50;;;;;;;9.40;9.10;;;5.50;99.90;;;;;;6203847;23;20268;-81
2024/01/06 15:55:19;;;;;;;9.40;9.10;;;5.50;99.90;;;;;;6203513;23;20207;-82
2024/01/06 15:57:47;;;;;;;9.50;9.20;;;5.50;99.90;;;;;;6203470;23;20219;-81
2024/01/06 16:00:17;;;;;;;9.60;9.30;;;5.50;99.90;;;;;;6204804;23;20199;-82
2024/01/06 16:02:50;;;;;;;9.40;9.10;;;5.40;99.90;;;;;;6202977;23;20290;-82
2024/01/06 16:05:24;;;;;;;9.70;9.40;;;5.30;99.90;;;;;;6204720;23;20199;-81
2024/01/06 16:07:52;;;;;;;9.50;9.20;;;5.30;99.90;;;;;;6202854;23;20198;-81
2024/01/06 16:10:21;;;;;;;9.40;9.10;;;5.30;99.90;;;;;;6203075;23;20200;-81
2024/01/06 16:12:48;;;;;;;9.30;9.00;;;5.30;99.90;;;;;;6202351;23;20190;-81
2024/01/06 16:15:16;;;;;;;9.47;9.17;;;5.30;99.90;;;;;;6202823;23;20192;-81
2024/01/06 16:17:43;;;;;;;9.50;9.20;;;5.20;99.90;;;;;;6202831;23;20235;-81
2024/01/06 16:20:12;;;;;;;9.60;9.30;;;5.20;99.90;;;;;;6202203;23;20195;-81
2024/01/06 16:22:41;;;;;;;9.70;9.40;;;5.20;99.90;;;;;;6202637;23;20196;-81
2024/01/06 16:25:09;;;;;;;9.57;9.27;;;5.30;99.90;;;;;;6203022;23;20203;-81
2024/01/06 16:27:37;;;;;;;9.60;9.30;;;5.30;99.90;;;;;;6202515;23;20226;-81
2024/01/06 16:30:05;;;;;;;9.80;9.50;;;5.40;99.90;;;;;;6202835;23;20195;-81
2024/01/06 16:32:33;;;;;;;9.70;9.40;;;5.40;99.90;;;;;;6202281;23;20188;-81
2024/01/06 16:35:00;;;;;;;9.90;9.60;;;5.40;99.90;;;;;;6202493;23;20282;-82
2024/01/06 16:37:27;;;;;;;9.70;9.40;;;5.50;99.90;;;;;;6202625;23;20286;-81
2024/01/06 16:39:56;;;;;;;9.60;9.30;;;5.50;99.90;;;;;;6201782;23;20202;-81
2024/01/06 16:42:23;;;;;;;9.60;9.30;;;5.40;99.90;;;;;;6201977;23;20203;-81
2024/01/06 16:44:51;;;;;;;9.80;9.50;;;5.30;99.90;;;;;;6202173;23;20256;-81
2024/01/06 16:47:18;;;;;;;9.83;9.53;;;5.30;99.90;;;;;;6202743;23;20255;-81
2024/01/06 16:49:46;;;;;;;9.77;9.47;;;5.30;99.90;;;;;;6203297;23;20324;-81
2024/01/06 16:52:13;;;;;;;9.80;9.50;;;5.40;99.90;;;;;;6204001;23;20184;-81
2024/01/06 16:54:41;;;;;;;9.63;9.33;;;5.40;99.90;;;;;;6206529;23;20196;-81
2024/01/06 16:57:09;;;;;;;9.80;9.50;;;5.50;99.90;;;;;;6201659;23;20203;-81
2024/01/06 16:59:37;;;;;;;9.83;9.53;;;5.40;99.90;;;;;;6202535;23;20196;-81
2024/01/06 17:02:04;;;;;;;9.80;9.50;;;5.30;99.90;;;;;;6202399;23;20211;-81
2024/01/06 17:04:34;;;;;;;9.50;9.20;;;5.20;99.90;;;;;;6201405;23;20251;-81
2024/01/06 17:07:04;;;;;;;9.47;9.17;;;5.20;99.90;;;;;;6201304;23;20209;-81
2024/01/06 17:09:31;;;;;;;9.67;9.37;;;5.20;99.90;;;;;;6201101;23;20219;-81
2024/01/06 17:11:58;;;;;;;9.60;9.30;;;5.20;99.90;;;;;;6201629;23;20188;-81
2024/01/06 17:14:27;;;;;;;9.33;9.03;;;5.30;99.90;;;;;;6201752;23;20196;-81
2024/01/06 17:16:55;;;;;;;9.30;9.00;;;5.30;99.90;;;;;;6201572;23;20200;-83
2024/01/06 17:19:22;;;;;;;9.23;8.93;;;5.30;99.90;;;;;;6201721;23;20195;-81
2024/01/06 17:21:49;;;;;;;9.17;8.87;;;5.30;99.90;;;;;;6201462;23;20196;-81
2024/01/06 17:24:20;;;;;;;9.60;9.30;;;5.20;99.90;;;;;;6204803;23;20215;-82
2024/01/06 17:26:47;;;;;;;9.80;9.50;;;5.20;99.90;;;;;;6203777;23;20238;-81
2024/01/06 17:29:15;;;;;;;9.63;9.33;;;5.20;99.90;;;;;;6203150;23;20199;-81
2024/01/06 17:31:44;;;;;;;9.70;9.40;;;5.20;99.90;;;;;;6202757;23;20196;-82
2024/01/06 17:34:13;;;;;;;9.90;9.60;;;5.00;99.90;;;;;;6201546;23;20195;-82
2024/01/06 17:36:45;;;;;;;10.10;9.80;;;4.90;99.90;;;;;;6161827;23;20805;-89
2024/01/06 17:39:17;;;;;;;9.87;9.57;;;4.80;99.90;;;;;;6075785;23;20232;-88
2024/01/06 17:41:57;;;;;;;9.80;9.50;;;4.80;99.90;;;;;;6076492;23;20241;-88
2024/01/06 17:44:35;;;;;;;9.73;9.43;;;4.80;99.90;;;;;;6076912;23;21088;-89
2024/01/06 17:47:25;;;;;;;10.30;10.00;;;4.80;99.90;;;;;;6076274;23;20209;-88
2024/01/06 17:50:04;;;;;;;9.90;9.60;;;4.80;99.90;;;;;;6075742;23;20249;-89
2024/01/06 17:52:34;;;;;;;9.70;9.40;;;4.90;99.90;;;;;;6077105;23;20202;-89
2024/01/06 17:55:09;;;;;;;10.17;9.87;;;5.00;99.90;;;;;;6076714;23;20201;-88
2024/01/06 17:57:53;;;;;;;9.73;9.43;;;4.90;99.90;;;;;;6076539;23;20266;-89
2024/01/06 18:00:34;;;;;;;10.00;9.70;;;5.00;99.90;;;;;;6077408;23;20197;-89
2024/01/06 18:03:12;;;;;;;9.90;9.60;;;4.90;99.90;;;;;;6093337;23;20202;-88
2024/01/06 18:05:47;;;;;;;10.10;9.80;;;4.90;99.90;;;;;;6212329;23;20206;-89
2024/01/06 18:08:52;;;;;;;9.93;9.63;;;4.90;99.90;;;;;;6078320;23;20233;-89
2024/01/06 18:11:35;;;;;;;10.13;9.83;;;4.90;99.90;;;;;;6077893;23;20213;-89
2024/01/06 18:14:12;;;;;;;10.27;9.97;;;4.80;99.90;;;;;;6077495;23;20249;-89
2024/01/06 18:16:54;;;;;;;10.30;10.00;;;4.80;99.90;;;;;;6078389;23;20237;-89
2024/01/06 18:19:33;;;;;;;10.13;9.83;;;4.80;99.90;;;;;;6076147;23;20664;-89
2024/01/06 18:22:23;;;;;;;10.20;9.90;;;4.80;99.90;;;;;;6076758;23;20216;-89
2024/01/06 18:25:16;;;;;;;9.93;9.63;;;4.80;99.90;;;;;;6077640;23;20289;-89
2024/01/06 18:27:52;;;;;;;10.30;10.00;;;4.80;99.90;;;;;;6035631;23;20261;-89
2024/01/06 18:30:40;;;;;;;10.13;9.83;;;4.80;99.90;;;;;;6077385;23;20198;-89
2024/01/06 18:33:46;;;;;;;10.30;10.00;;;4.80;99.90;;;;;;6081388;23;20210;-89
2024/01/06 18:36:26;;;;;;;10.40;10.10;;;4.90;99.90;;;;;;6078055;23;20205;-89
2024/01/06 18:39:09;;;;;;;10.20;9.90;;;4.90;99.90;;;;;;6078918;23;20245;-89
2024/01/06 18:41:54;;;;;;;;;;;;;;;;;;;;;
2024/01/06 18:44:36;;;;;;;10.27;9.97;;;5.00;99.90;;;;;;6077221;23;20202;-90
2024/01/06 18:47:24;;;;;;;10.10;9.80;;;5.00;99.90;;;;;;6076736;23;20210;-90
2024/01/06 18:50:04;;;;;;;10.00;9.70;;;5.00;99.90;;;;;;6087951;23;20241;-90
2024/01/06 18:52:47;;;;;;;9.90;9.60;;;5.00;99.90;;;;;;6079138;23;20265;-90